FFT2531 KLAX-KLAS
Flight info
| Callsign | FFT2531 |
|---|---|
| Flight time | 0h 46m |
| Altitude | 29000 |
| Route | ORCKA5 MISEN RNDRZ4 |
| Aircraft | A320/M-SDE3FGHIRWY/LB1 |
Departure
| Time | 2026-05-07 23:39 |
|---|---|
| Airport | Los Angeles International Airport (KLAX) |
Arrival
| Time | 2026-05-08 00:25 |
|---|---|
| Airport | Harry Reid International Airport (KLAS) |
| Time | Latitude | Longitude | Altitude | Speed | Heading |
|---|---|---|---|---|---|
| 2026-05-07 23:22 | 33.94694 | -118.40065 | 124 ft | 0 kts | 264° |
| 2026-05-07 23:31 | 33.94694 | -118.40061 | 126 ft | 3 kts | 255° |
| 2026-05-07 23:31 | 33.94693 | -118.40053 | 126 ft | 3 kts | 276° |
| 2026-05-07 23:32 | 33.94687 | -118.40023 | 120 ft | 4 kts | 308° |
| 2026-05-07 23:32 | 33.94670 | -118.40009 | 121 ft | 1 kts | 351° |
| 2026-05-07 23:32 | 33.94666 | -118.40008 | 122 ft | 0 kts | 351° |
| 2026-05-07 23:34 | 33.94686 | -118.40012 | 120 ft | 5 kts | 352° |
| 2026-05-07 23:34 | 33.94716 | -118.40014 | 123 ft | 4 kts | 1° |
| 2026-05-07 23:34 | 33.94731 | -118.40013 | 122 ft | 0 kts | 3° |
| 2026-05-07 23:35 | 33.94764 | -118.40011 | 123 ft | 8 kts | 3° |
| 2026-05-07 23:35 | 33.94813 | -118.40008 | 123 ft | 6 kts | 359° |
| 2026-05-07 23:35 | 33.94854 | -118.40053 | 125 ft | 12 kts | 300° |
| 2026-05-07 23:35 | 33.94925 | -118.40068 | 126 ft | 8 kts | 11° |
| 2026-05-07 23:36 | 33.94930 | -118.40067 | 122 ft | 0 kts | 11° |
| 2026-05-07 23:37 | 33.94948 | -118.40064 | 123 ft | 7 kts | 7° |
| 2026-05-07 23:37 | 33.94989 | -118.40066 | 123 ft | 6 kts | 353° |
| 2026-05-07 23:37 | 33.95022 | -118.40082 | 122 ft | 5 kts | 315° |
| 2026-05-07 23:38 | 33.95025 | -118.40115 | 123 ft | 0 kts | 265° |
| 2026-05-07 23:38 | 33.95025 | -118.40117 | 126 ft | 2 kts | 265° |
| 2026-05-07 23:38 | 33.95012 | -118.40254 | 126 ft | 48 kts | 263° |
| 2026-05-07 23:38 | 33.94933 | -118.41025 | 123 ft | 132 kts | 263° |
| 2026-05-07 23:39 | 33.94807 | -118.42290 | 591 ft | 159 kts | 262° |
| 2026-05-07 23:39 | 33.94686 | -118.43665 | 1421 ft | 171 kts | 263° |
| 2026-05-07 23:39 | 33.94531 | -118.45132 | 2241 ft | 184 kts | 262° |
| 2026-05-07 23:39 | 33.94357 | -118.46740 | 2533 ft | 210 kts | 263° |
| 2026-05-07 23:40 | 33.94153 | -118.48580 | 2941 ft | 234 kts | 263° |
| 2026-05-07 23:40 | 33.93921 | -118.50618 | 3468 ft | 252 kts | 263° |
| 2026-05-07 23:40 | 33.93680 | -118.52733 | 4314 ft | 257 kts | 263° |
| 2026-05-07 23:40 | 33.93436 | -118.54881 | 5198 ft | 261 kts | 263° |
| 2026-05-07 23:41 | 33.93188 | -118.57062 | 6056 ft | 265 kts | 263° |
| 2026-05-07 23:41 | 33.92935 | -118.59279 | 6866 ft | 271 kts | 263° |
| 2026-05-07 23:41 | 33.92677 | -118.61543 | 7693 ft | 275 kts | 263° |
| 2026-05-07 23:41 | 33.92397 | -118.63841 | 8518 ft | 281 kts | 259° |
| 2026-05-07 23:42 | 33.91605 | -118.66018 | 9259 ft | 292 kts | 236° |
| 2026-05-07 23:42 | 33.90058 | -118.67641 | 10000 ft | 302 kts | 207° |
| 2026-05-07 23:42 | 33.88019 | -118.68272 | 10711 ft | 307 kts | 179° |
| 2026-05-07 23:42 | 33.85944 | -118.67739 | 11449 ft | 308 kts | 151° |
| 2026-05-07 23:43 | 33.84258 | -118.66154 | 12005 ft | 316 kts | 126° |
| 2026-05-07 23:43 | 33.83342 | -118.63741 | 12245 ft | 333 kts | 97° |
| 2026-05-07 23:43 | 33.83500 | -118.60935 | 12541 ft | 345 kts | 68° |
| 2026-05-07 23:43 | 33.84621 | -118.58360 | 12922 ft | 351 kts | 57° |
| 2026-05-07 23:44 | 33.85965 | -118.55892 | 13251 ft | 355 kts | 55° |
| 2026-05-07 23:44 | 33.87392 | -118.53459 | 14019 ft | 357 kts | 54° |
| 2026-05-07 23:44 | 33.88844 | -118.51026 | 14681 ft | 360 kts | 54° |
| 2026-05-07 23:44 | 33.90295 | -118.48564 | 14923 ft | 360 kts | 54° |
| 2026-05-07 23:45 | 33.91723 | -118.46085 | 15187 ft | 364 kts | 55° |
| 2026-05-07 23:45 | 33.93149 | -118.43563 | 15926 ft | 365 kts | 56° |
| 2026-05-07 23:45 | 33.94580 | -118.41025 | 16581 ft | 368 kts | 56° |
| 2026-05-07 23:45 | 33.96025 | -118.38473 | 17261 ft | 371 kts | 55° |
| 2026-05-07 23:46 | 33.97445 | -118.35968 | 17895 ft | 374 kts | 55° |
| 2026-05-07 23:46 | 33.98944 | -118.33328 | 18523 ft | 377 kts | 55° |
| 2026-05-07 23:46 | 34.00431 | -118.30707 | 19083 ft | 380 kts | 55° |
| 2026-05-07 23:46 | 34.01932 | -118.28061 | 19628 ft | 384 kts | 55° |
| 2026-05-07 23:47 | 34.03441 | -118.25399 | 20203 ft | 387 kts | 55° |
| 2026-05-07 23:47 | 34.04963 | -118.22707 | 20761 ft | 390 kts | 55° |
| 2026-05-07 23:47 | 34.06497 | -118.19989 | 21289 ft | 394 kts | 55° |
| 2026-05-07 23:47 | 34.08041 | -118.17256 | 21825 ft | 397 kts | 55° |
| 2026-05-07 23:48 | 34.09600 | -118.14495 | 22345 ft | 400 kts | 54° |
| 2026-05-07 23:48 | 34.11173 | -118.11708 | 22871 ft | 403 kts | 55° |
| 2026-05-07 23:48 | 34.12755 | -118.08904 | 23372 ft | 406 kts | 55° |
| 2026-05-07 23:48 | 34.14313 | -118.06143 | 23808 ft | 409 kts | 54° |
| 2026-05-07 23:49 | 34.15376 | -118.04258 | 24064 ft | 411 kts | 54° |
| 2026-05-07 23:49 | 34.16991 | -118.01396 | 24472 ft | 414 kts | 54° |
| 2026-05-07 23:49 | 34.18617 | -117.98514 | 24851 ft | 416 kts | 54° |
| 2026-05-07 23:49 | 34.20246 | -117.95617 | 25236 ft | 418 kts | 54° |
| 2026-05-07 23:50 | 34.21885 | -117.92700 | 25630 ft | 420 kts | 54° |
| 2026-05-07 23:50 | 34.23531 | -117.89771 | 26021 ft | 422 kts | 54° |
| 2026-05-07 23:50 | 34.25184 | -117.86826 | 26404 ft | 424 kts | 54° |
| 2026-05-07 23:50 | 34.26844 | -117.83868 | 26769 ft | 426 kts | 54° |
| 2026-05-07 23:51 | 34.28516 | -117.80890 | 27085 ft | 429 kts | 54° |
| 2026-05-07 23:51 | 34.30190 | -117.77901 | 27421 ft | 431 kts | 54° |
| 2026-05-07 23:51 | 34.31872 | -117.74886 | 27769 ft | 433 kts | 54° |
| 2026-05-07 23:51 | 34.33562 | -117.71854 | 28118 ft | 435 kts | 54° |
| 2026-05-07 23:52 | 34.35259 | -117.68812 | 28446 ft | 437 kts | 54° |
| 2026-05-07 23:52 | 34.36997 | -117.65786 | 28770 ft | 439 kts | 53° |
| 2026-05-07 23:52 | 34.38786 | -117.62780 | 28955 ft | 440 kts | 52° |
| 2026-05-07 23:52 | 34.40579 | -117.59820 | 28980 ft | 433 kts | 52° |
| 2026-05-07 23:53 | 34.44135 | -117.53976 | 28955 ft | 430 kts | 52° |
| 2026-05-07 23:53 | 34.47633 | -117.48144 | 29026 ft | 427 kts | 52° |
| 2026-05-07 23:54 | 34.51103 | -117.42299 | 29043 ft | 428 kts | 53° |
| 2026-05-07 23:54 | 34.54575 | -117.36430 | 29044 ft | 428 kts | 53° |
| 2026-05-07 23:55 | 34.58046 | -117.30558 | 29042 ft | 428 kts | 53° |
| 2026-05-07 23:55 | 34.61521 | -117.24690 | 29030 ft | 428 kts | 53° |
| 2026-05-07 23:56 | 34.64994 | -117.18822 | 28999 ft | 428 kts | 53° |
| 2026-05-07 23:56 | 34.68459 | -117.12951 | 28928 ft | 427 kts | 53° |
| 2026-05-07 23:57 | 34.71912 | -117.07083 | 28939 ft | 427 kts | 53° |
| 2026-05-07 23:57 | 34.75358 | -117.01214 | 28943 ft | 426 kts | 53° |
| 2026-05-07 23:58 | 34.78793 | -116.95349 | 28942 ft | 425 kts | 53° |
| 2026-05-07 23:58 | 34.82224 | -116.89489 | 28945 ft | 425 kts | 53° |
| 2026-05-07 23:59 | 34.85654 | -116.83630 | 28950 ft | 424 kts | 53° |
| 2026-05-07 23:59 | 34.89063 | -116.77777 | 28946 ft | 423 kts | 53° |
| 2026-05-08 00:00 | 34.92468 | -116.71928 | 28939 ft | 423 kts | 53° |
| 2026-05-08 00:00 | 34.95803 | -116.66080 | 28927 ft | 423 kts | 54° |
| 2026-05-08 00:01 | 34.99127 | -116.60160 | 28912 ft | 423 kts | 54° |
| 2026-05-08 00:01 | 35.02449 | -116.54235 | 28903 ft | 423 kts | 54° |
| 2026-05-08 00:02 | 35.05776 | -116.48312 | 28881 ft | 423 kts | 54° |
| 2026-05-08 00:02 | 35.09115 | -116.42382 | 28876 ft | 424 kts | 54° |
| 2026-05-08 00:03 | 35.12929 | -116.36918 | 28882 ft | 428 kts | 45° |
| 2026-05-08 00:03 | 35.14987 | -116.34273 | 28648 ft | 430 kts | 45° |
| 2026-05-08 00:03 | 35.17032 | -116.31634 | 27154 ft | 431 kts | 45° |
| 2026-05-08 00:04 | 35.19092 | -116.28964 | 26115 ft | 429 kts | 45° |
| 2026-05-08 00:04 | 35.21104 | -116.26347 | 25773 ft | 417 kts | 45° |
| 2026-05-08 00:04 | 35.23076 | -116.23776 | 25137 ft | 413 kts | 45° |
| 2026-05-08 00:04 | 35.25009 | -116.21198 | 24501 ft | 410 kts | 46° |
| 2026-05-08 00:05 | 35.26904 | -116.18615 | 23884 ft | 406 kts | 46° |
| 2026-05-08 00:05 | 35.28773 | -116.16035 | 23240 ft | 404 kts | 47° |
| 2026-05-08 00:05 | 35.30619 | -116.13472 | 22622 ft | 399 kts | 47° |
| 2026-05-08 00:05 | 35.32444 | -116.10935 | 22091 ft | 394 kts | 47° |
| 2026-05-08 00:06 | 35.34246 | -116.08438 | 21574 ft | 389 kts | 47° |
| 2026-05-08 00:06 | 35.36033 | -116.05968 | 21082 ft | 385 kts | 47° |
| 2026-05-08 00:06 | 35.37803 | -116.03532 | 20582 ft | 381 kts | 47° |
| 2026-05-08 00:06 | 35.39562 | -116.01117 | 20102 ft | 378 kts | 47° |
| 2026-05-08 00:07 | 35.41306 | -115.98723 | 19618 ft | 375 kts | 47° |
| 2026-05-08 00:07 | 35.43036 | -115.96347 | 19127 ft | 372 kts | 47° |
| 2026-05-08 00:07 | 35.44754 | -115.93983 | 18645 ft | 370 kts | 46° |
| 2026-05-08 00:07 | 35.46460 | -115.91634 | 18130 ft | 368 kts | 46° |
| 2026-05-08 00:08 | 35.48158 | -115.89290 | 17631 ft | 365 kts | 47° |
| 2026-05-08 00:08 | 35.49836 | -115.86968 | 17136 ft | 362 kts | 47° |
| 2026-05-08 00:08 | 35.51502 | -115.84661 | 16644 ft | 360 kts | 47° |
| 2026-05-08 00:08 | 35.53133 | -115.82399 | 16473 ft | 348 kts | 46° |
| 2026-05-08 00:09 | 35.54708 | -115.80218 | 16358 ft | 335 kts | 47° |
| 2026-05-08 00:09 | 35.56229 | -115.78112 | 16239 ft | 324 kts | 47° |
| 2026-05-08 00:09 | 35.57703 | -115.76072 | 16066 ft | 316 kts | 46° |
| 2026-05-08 00:09 | 35.59147 | -115.74075 | 15943 ft | 311 kts | 46° |
| 2026-05-08 00:10 | 35.60587 | -115.72101 | 15840 ft | 310 kts | 46° |
| 2026-05-08 00:10 | 35.62035 | -115.70148 | 15692 ft | 308 kts | 46° |
| 2026-05-08 00:10 | 35.63464 | -115.68232 | 15540 ft | 308 kts | 45° |
| 2026-05-08 00:10 | 35.64909 | -115.66294 | 15386 ft | 307 kts | 46° |
| 2026-05-08 00:11 | 35.66348 | -115.64357 | 15228 ft | 306 kts | 45° |
| 2026-05-08 00:11 | 35.67781 | -115.62418 | 15079 ft | 307 kts | 46° |
| 2026-05-08 00:11 | 35.69215 | -115.60474 | 14927 ft | 306 kts | 47° |
| 2026-05-08 00:11 | 35.70648 | -115.58535 | 14765 ft | 306 kts | 46° |
| 2026-05-08 00:12 | 35.72081 | -115.56608 | 14612 ft | 305 kts | 44° |
| 2026-05-08 00:12 | 35.73715 | -115.54963 | 14453 ft | 303 kts | 31° |
| 2026-05-08 00:12 | 35.75540 | -115.53677 | 14305 ft | 302 kts | 29° |
| 2026-05-08 00:12 | 35.77371 | -115.52405 | 14150 ft | 302 kts | 29° |
| 2026-05-08 00:13 | 35.79200 | -115.51130 | 14000 ft | 302 kts | 29° |
| 2026-05-08 00:13 | 35.81022 | -115.49853 | 13843 ft | 301 kts | 30° |
| 2026-05-08 00:13 | 35.82840 | -115.48574 | 13689 ft | 301 kts | 29° |
| 2026-05-08 00:13 | 35.84650 | -115.47298 | 13526 ft | 299 kts | 28° |
| 2026-05-08 00:14 | 35.86451 | -115.46029 | 13378 ft | 298 kts | 28° |
| 2026-05-08 00:14 | 35.88249 | -115.44761 | 13230 ft | 298 kts | 29° |
| 2026-05-08 00:14 | 35.90048 | -115.43497 | 13071 ft | 297 kts | 28° |
| 2026-05-08 00:14 | 35.91849 | -115.42238 | 12822 ft | 298 kts | 28° |
| 2026-05-08 00:15 | 35.93650 | -115.40984 | 12465 ft | 297 kts | 28° |
| 2026-05-08 00:15 | 35.95449 | -115.39733 | 12127 ft | 296 kts | 28° |
| 2026-05-08 00:15 | 35.97240 | -115.38483 | 11777 ft | 295 kts | 28° |
| 2026-05-08 00:15 | 35.98995 | -115.37156 | 11439 ft | 297 kts | 37° |
| 2026-05-08 00:16 | 36.00396 | -115.35281 | 11103 ft | 300 kts | 55° |
| 2026-05-08 00:16 | 36.01231 | -115.32913 | 10813 ft | 305 kts | 75° |
| 2026-05-08 00:16 | 36.01397 | -115.30332 | 10533 ft | 308 kts | 92° |
| 2026-05-08 00:16 | 36.01258 | -115.27688 | 10262 ft | 308 kts | 93° |
| 2026-05-08 00:17 | 36.01119 | -115.25049 | 10014 ft | 308 kts | 93° |
| 2026-05-08 00:17 | 36.00981 | -115.22409 | 9739 ft | 308 kts | 93° |
| 2026-05-08 00:17 | 36.00846 | -115.19779 | 9462 ft | 306 kts | 93° |
| 2026-05-08 00:17 | 36.00717 | -115.17205 | 9345 ft | 294 kts | 93° |
| 2026-05-08 00:18 | 36.00593 | -115.14730 | 9221 ft | 283 kts | 93° |
| 2026-05-08 00:18 | 36.00474 | -115.12348 | 9096 ft | 273 kts | 93° |
| 2026-05-08 00:18 | 36.00362 | -115.10057 | 9003 ft | 261 kts | 93° |
| 2026-05-08 00:18 | 36.00251 | -115.07829 | 8713 ft | 259 kts | 93° |
| 2026-05-08 00:19 | 36.00138 | -115.05629 | 8471 ft | 254 kts | 93° |
| 2026-05-08 00:19 | 36.00026 | -115.03473 | 8237 ft | 250 kts | 93° |
| 2026-05-08 00:19 | 35.99916 | -115.01338 | 8072 ft | 249 kts | 92° |
| 2026-05-08 00:19 | 35.99857 | -114.99209 | 8004 ft | 248 kts | 89° |
| 2026-05-08 00:20 | 35.99843 | -114.97076 | 7967 ft | 248 kts | 88° |
| 2026-05-08 00:20 | 35.99844 | -114.94948 | 7971 ft | 248 kts | 88° |
| 2026-05-08 00:20 | 36.00143 | -114.92890 | 7900 ft | 242 kts | 60° |
| 2026-05-08 00:20 | 36.01181 | -114.91276 | 7328 ft | 243 kts | 34° |
| 2026-05-08 00:21 | 36.02688 | -114.90349 | 6727 ft | 244 kts | 10° |
| 2026-05-08 00:21 | 36.04371 | -114.90296 | 6108 ft | 244 kts | 345° |
| 2026-05-08 00:21 | 36.05931 | -114.91156 | 5506 ft | 250 kts | 323° |
| 2026-05-08 00:21 | 36.07054 | -114.92760 | 5094 ft | 248 kts | 293° |
| 2026-05-08 00:22 | 36.07373 | -114.94819 | 4756 ft | 244 kts | 270° |
| 2026-05-08 00:22 | 36.07369 | -114.96908 | 4449 ft | 242 kts | 269° |
| 2026-05-08 00:22 | 36.07363 | -114.98977 | 4150 ft | 240 kts | 270° |
| 2026-05-08 00:22 | 36.07364 | -115.01026 | 3860 ft | 237 kts | 270° |
| 2026-05-08 00:23 | 36.07365 | -115.03005 | 3579 ft | 227 kts | 269° |
| 2026-05-08 00:23 | 36.07366 | -115.04870 | 3324 ft | 208 kts | 269° |
| 2026-05-08 00:23 | 36.07366 | -115.06568 | 3088 ft | 185 kts | 270° |
| 2026-05-08 00:23 | 36.07366 | -115.08066 | 2833 ft | 164 kts | 271° |
| 2026-05-08 00:24 | 36.07365 | -115.09426 | 2603 ft | 153 kts | 272° |
| 2026-05-08 00:24 | 36.07375 | -115.10723 | 2434 ft | 149 kts | 272° |
| 2026-05-08 00:24 | 36.07368 | -115.12001 | 2274 ft | 149 kts | 271° |
| 2026-05-08 00:24 | 36.07365 | -115.13264 | 2128 ft | 140 kts | 272° |
| 2026-05-08 00:25 | 36.07367 | -115.14257 | 2127 ft | 77 kts | 270° |
| 2026-05-08 00:25 | 36.07368 | -115.14677 | 2125 ft | 37 kts | 273° |
| 2026-05-08 00:25 | 36.07425 | -115.14949 | 2123 ft | 32 kts | 296° |
| 2026-05-08 00:25 | 36.07515 | -115.15114 | 2122 ft | 18 kts | 314° |
| 2026-05-08 00:26 | 36.07623 | -115.15183 | 2128 ft | 17 kts | 329° |
| 2026-05-08 00:26 | 36.07740 | -115.15254 | 2127 ft | 20 kts | 336° |
| 2026-05-08 00:26 | 36.07800 | -115.15178 | 2128 ft | 17 kts | 96° |
| 2026-05-08 00:26 | 36.07799 | -115.15012 | 2126 ft | 21 kts | 91° |
| 2026-05-08 00:27 | 36.07781 | -115.14826 | 2124 ft | 23 kts | 96° |
| 2026-05-08 00:27 | 36.07883 | -115.14729 | 2120 ft | 24 kts | 345° |
| 2026-05-08 00:27 | 36.07983 | -115.14714 | 2119 ft | 7 kts | 57° |
| 2026-05-08 00:27 | 36.07986 | -115.14708 | 2119 ft | 0 kts | 57° |